createdAt,value
2022-11-29T00:02:16.072Z,23.67
2022-11-29T00:04:42.743Z,22.08
2022-11-29T00:07:09.402Z,24.77
2022-11-29T00:09:35.831Z,23.63
2022-11-29T00:12:14.513Z,23.95
2022-11-29T00:14:41.639Z,22.48
2022-11-29T00:17:08.386Z,24.45
2022-11-29T00:19:35.560Z,24.15
2022-11-29T00:22:02.349Z,21.65
2022-11-29T00:24:28.846Z,23.00
2022-11-29T00:26:55.258Z,23.27
2022-11-29T00:29:21.709Z,25.15
2022-11-29T00:31:48.245Z,24.58
2022-11-29T00:34:14.745Z,24.40
2022-11-29T00:36:41.175Z,25.45
2022-11-29T00:39:07.668Z,23.58
2022-11-29T00:41:34.216Z,24.55
2022-11-29T00:44:00.776Z,26.55
2022-11-29T00:46:27.256Z,28.08
2022-11-29T00:48:53.737Z,27.33
2022-11-29T00:51:20.145Z,31.80
2022-11-29T00:53:46.574Z,30.55
2022-11-29T00:56:13.072Z,28.92
2022-11-29T00:58:39.551Z,28.02
2022-11-29T01:01:12.398Z,25.02
2022-11-29T01:03:43.159Z,30.50
2022-11-29T01:06:11.640Z,27.20
2022-11-29T01:08:38.300Z,27.55
2022-11-29T01:11:14.994Z,27.38
2022-11-29T01:13:42.168Z,23.88
2022-11-29T01:16:09.115Z,25.67
2022-11-29T01:18:36.177Z,24.10
2022-11-29T01:21:04.948Z,24.77
2022-11-29T01:23:31.794Z,26.45
2022-11-29T01:25:59.548Z,23.70
2022-11-29T01:28:26.349Z,25.00
2022-11-29T01:30:52.828Z,25.88
2022-11-29T01:33:19.466Z,25.60
2022-11-29T01:35:53.182Z,23.95
2022-11-29T01:38:20.325Z,24.17
2022-11-29T01:40:56.500Z,23.73
2022-11-29T01:43:23.484Z,25.35
2022-11-29T01:45:50.513Z,25.77
2022-11-29T01:48:17.301Z,25.13
2022-11-29T01:50:43.888Z,23.58
2022-11-29T01:53:11.924Z,24.42
2022-11-29T01:55:39.328Z,24.55
2022-11-29T01:58:06.501Z,24.90
2022-11-29T02:00:33.046Z,24.50
2022-11-29T02:03:03.461Z,24.02
2022-11-29T02:05:30.123Z,22.58
2022-11-29T02:07:57.627Z,21.48
2022-11-29T02:10:44.441Z,22.00
2022-11-29T02:13:36.626Z,22.10
2022-11-29T02:16:21.896Z,20.05
2022-11-29T02:18:57.470Z,20.65
2022-11-29T02:21:40.074Z,20.63
2022-11-29T02:24:13.496Z,21.58
2022-11-29T02:26:49.088Z,20.80
2022-11-29T02:29:32.007Z,20.40
2022-11-29T02:31:58.457Z,19.17
2022-11-29T02:34:43.535Z,20.20
2022-11-29T02:37:16.337Z,19.85
2022-11-29T02:39:54.892Z,20.08
2022-11-29T02:42:21.259Z,21.38
2022-11-29T02:45:07.850Z,21.02
2022-11-29T02:47:52.478Z,19.92
2022-11-29T02:50:34.820Z,19.40
2022-11-29T02:53:04.624Z,20.23
2022-11-29T02:55:54.012Z,19.15
2022-11-29T02:58:31.689Z,19.75
2022-11-29T03:01:02.887Z,19.98
2022-11-29T03:03:38.794Z,19.65
2022-11-29T03:06:05.247Z,20.33
2022-11-29T03:08:35.268Z,21.10
2022-11-29T03:11:07.104Z,19.30
2022-11-29T03:13:33.482Z,20.35
2022-11-29T03:16:18.734Z,21.63
2022-11-29T03:18:57.945Z,22.23
2022-11-29T03:21:44.371Z,20.55
2022-11-29T03:24:22.885Z,20.48
2022-11-29T03:26:59.564Z,21.45
2022-11-29T03:29:42.988Z,22.40
2022-11-29T03:32:12.717Z,21.98
2022-11-29T03:34:57.969Z,23.75
2022-11-29T03:37:33.545Z,24.15
2022-11-29T03:40:04.427Z,23.02
2022-11-29T03:42:58.619Z,25.52
2022-11-29T03:48:06.880Z,23.70
2022-11-29T03:50:39.022Z,25.27
2022-11-29T03:53:19.749Z,23.17
2022-11-29T03:55:48.782Z,24.13
2022-11-29T03:58:32.266Z,23.00
2022-11-29T04:01:21.868Z,24.98
2022-11-29T04:03:51.311Z,23.75
2022-11-29T04:06:36.597Z,24.95
2022-11-29T04:09:17.488Z,26.50
2022-11-29T04:11:55.783Z,25.67
2022-11-29T04:14:34.321Z,26.23
2022-11-29T04:17:03.718Z,21.73
2022-11-29T04:19:48.959Z,24.55
2022-11-29T04:22:15.393Z,24.20
2022-11-29T04:24:56.894Z,21.50
2022-11-29T04:27:30.267Z,21.17
2022-11-29T04:30:05.919Z,23.75
2022-11-29T04:32:32.385Z,21.67
2022-11-29T04:35:17.640Z,21.55
2022-11-29T04:37:47.132Z,21.48
2022-11-29T04:40:41.462Z,24.05
2022-11-29T04:43:23.390Z,23.80
2022-11-29T04:45:58.901Z,22.10
2022-11-29T04:48:45.589Z,21.55
2022-11-29T04:51:22.484Z,21.65
2022-11-29T04:53:48.945Z,20.25
2022-11-29T04:56:21.573Z,21.35
2022-11-29T04:58:55.162Z,21.35
2022-11-29T05:03:51.239Z,20.65
2022-11-29T05:06:39.225Z,22.30
2022-11-29T05:09:21.042Z,22.20
2022-11-29T05:12:10.261Z,23.30
2022-11-29T05:15:05.095Z,21.33
2022-11-29T05:17:34.571Z,21.90
2022-11-29T05:20:05.019Z,23.42
2022-11-29T05:22:50.403Z,22.20
2022-11-29T05:25:24.328Z,22.23
2022-11-29T05:28:10.399Z,22.48
2022-11-29T05:30:46.557Z,23.55
2022-11-29T05:33:28.382Z,23.40
2022-11-29T05:36:01.776Z,22.23
2022-11-29T05:38:34.216Z,21.50
2022-11-29T05:41:04.042Z,21.98
2022-11-29T05:43:50.708Z,22.63
2022-11-29T05:46:24.899Z,22.05
2022-11-29T05:49:00.633Z,26.00
2022-11-29T05:51:33.109Z,23.42
2022-11-29T05:54:18.418Z,25.92
2022-11-29T05:56:47.927Z,26.20
2022-11-29T05:59:20.097Z,22.00
2022-11-29T06:01:53.513Z,23.55
2022-11-29T06:04:19.981Z,24.23
2022-11-29T06:06:52.997Z,24.38
2022-11-29T06:09:23.734Z,23.50
2022-11-29T06:11:56.807Z,25.92
2022-11-29T06:14:36.545Z,25.23
2022-11-29T06:17:08.986Z,24.00
2022-11-29T06:19:38.489Z,23.23
2022-11-29T06:22:08.613Z,25.25
2022-11-29T06:24:58.465Z,22.63
2022-11-29T06:27:29.468Z,22.10
2022-11-29T06:30:04.417Z,23.55
2022-11-29T06:32:40.842Z,25.10
2022-11-29T06:35:16.646Z,24.02
2022-11-29T06:37:45.081Z,22.73
2022-11-29T06:40:12.731Z,23.13
2022-11-29T06:42:41.814Z,24.30
2022-11-29T06:45:10.478Z,22.83
2022-11-29T06:47:42.159Z,24.50
2022-11-29T06:50:21.003Z,24.10
2022-11-29T06:52:54.571Z,22.52
2022-11-29T06:55:41.217Z,22.98
2022-11-29T06:58:29.238Z,23.67
2022-11-29T07:01:16.982Z,22.83
2022-11-29T07:04:02.301Z,25.40
2022-11-29T07:06:29.131Z,25.92
2022-11-29T07:08:58.840Z,26.92
2022-11-29T07:11:25.450Z,24.60
2022-11-29T07:13:52.169Z,24.60
2022-11-29T07:16:18.619Z,22.15
2022-11-29T07:19:08.419Z,21.58
2022-11-29T07:21:49.269Z,24.33
2022-11-29T07:24:34.243Z,21.98
2022-11-29T07:27:03.789Z,22.30
2022-11-29T07:29:38.024Z,22.45
2022-11-29T07:32:20.445Z,23.08
2022-11-29T07:34:59.181Z,22.00
2022-11-29T07:37:31.627Z,22.75
2022-11-29T07:40:01.117Z,23.17
2022-11-29T07:42:46.184Z,27.35
2022-11-29T07:45:25.038Z,24.48
2022-11-29T07:47:51.687Z,24.60
2022-11-29T07:50:18.318Z,27.00
2022-11-29T07:52:44.822Z,26.77
2022-11-29T07:55:18.275Z,25.45
2022-11-29T07:57:45.280Z,25.60
2022-11-29T08:00:12.020Z,26.10
2022-11-29T08:02:38.839Z,27.15
2022-11-29T08:05:05.670Z,24.38
2022-11-29T08:07:34.609Z,26.15
2022-11-29T08:10:01.152Z,26.48
2022-11-29T08:12:27.644Z,26.80
2022-11-29T08:15:02.999Z,28.23
2022-11-29T08:17:29.466Z,28.70
2022-11-29T08:19:58.887Z,26.88
2022-11-29T08:22:27.682Z,30.52
2022-11-29T08:24:54.107Z,30.70
2022-11-29T08:27:21.779Z,30.73
2022-11-29T08:29:59.952Z,186.55
2022-11-29T08:32:27.295Z,96.03
2022-11-29T08:34:53.751Z,85.70
2022-11-29T08:37:23.311Z,45.80
2022-11-29T08:39:49.733Z,36.08
2022-11-29T08:42:18.634Z,43.05
2022-11-29T08:44:45.322Z,38.58
2022-11-29T08:47:37.819Z,40.33
2022-11-29T08:50:14.996Z,38.00
2022-11-29T08:53:05.400Z,36.38
2022-11-29T08:55:33.784Z,35.47
2022-11-29T08:58:04.142Z,36.05
2022-11-29T09:00:30.784Z,35.05
2022-11-29T09:03:33.183Z,34.65
2022-11-29T09:06:10.493Z,36.38
2022-11-29T09:08:49.323Z,37.83
2022-11-29T09:11:27.142Z,39.05
2022-11-29T09:13:55.247Z,40.13
2022-11-29T09:16:23.625Z,41.70
2022-11-29T09:18:52.048Z,43.20
2022-11-29T09:21:19.038Z,42.58
2022-11-29T09:23:45.859Z,44.35
2022-11-29T09:26:16.539Z,48.78
2022-11-29T09:28:42.956Z,46.50
2022-11-29T09:31:10.977Z,47.42
2022-11-29T09:33:37.387Z,40.83
2022-11-29T09:36:04.039Z,41.78
2022-11-29T09:38:30.494Z,42.78
2022-11-29T09:41:03.143Z,41.63
2022-11-29T09:43:32.722Z,42.55
2022-11-29T09:46:03.233Z,40.45
2022-11-29T09:48:38.542Z,39.05
2022-11-29T09:51:04.887Z,39.67
2022-11-29T09:53:53.645Z,36.83
2022-11-29T09:56:40.792Z,37.13
2022-11-29T09:59:22.652Z,33.17
2022-11-29T10:02:00.409Z,33.22
2022-11-29T10:04:36.267Z,29.23
2022-11-29T10:07:05.753Z,28.67
2022-11-29T10:09:37.141Z,29.52
2022-11-29T10:12:13.339Z,30.73
2022-11-29T10:20:22.580Z,30.73
2022-11-29T10:22:55.628Z,28.48
2022-11-29T10:25:24.385Z,27.67
2022-11-29T10:27:50.978Z,26.20
2022-11-29T10:30:17.824Z,26.52
2022-11-29T10:32:46.458Z,25.70
2022-11-29T10:35:14.635Z,25.63
2022-11-29T10:37:41.610Z,29.17
2022-11-29T10:40:12.656Z,27.50
2022-11-29T10:42:54.586Z,27.30
2022-11-29T10:45:20.988Z,28.13
2022-11-29T10:47:48.336Z,26.50
2022-11-29T10:50:19.584Z,29.42
2022-11-29T10:52:46.033Z,31.05
2022-11-29T10:55:13.807Z,29.13
2022-11-29T10:58:00.285Z,30.83
2022-11-29T11:00:29.771Z,32.35
2022-11-29T11:02:56.504Z,35.15
2022-11-29T11:05:26.448Z,35.63
2022-11-29T11:07:57.515Z,37.65
2022-11-29T11:10:55.433Z,35.83
2022-11-29T11:13:26.667Z,36.63
2022-11-29T11:16:13.171Z,35.25
2022-11-29T11:18:39.697Z,36.42
2022-11-29T11:23:52.749Z,33.65
2022-11-29T11:26:19.571Z,33.47
2022-11-29T11:28:56.906Z,33.72
2022-11-29T11:31:28.380Z,34.13
2022-11-29T11:34:17.740Z,37.58
2022-11-29T11:37:06.134Z,38.08
2022-11-29T11:39:40.177Z,39.53
2022-11-29T11:42:28.969Z,40.03
2022-11-29T11:44:55.439Z,41.28
2022-11-29T11:47:24.895Z,44.13
2022-11-29T11:49:58.919Z,51.13
2022-11-29T11:52:27.466Z,50.92
2022-11-29T11:54:55.370Z,49.33
2022-11-29T11:58:09.297Z,46.05
2022-11-29T12:03:38.380Z,38.45
2022-11-29T12:06:26.691Z,35.92
2022-11-29T12:08:55.732Z,36.47
2022-11-29T12:11:22.865Z,35.90
2022-11-29T12:13:51.836Z,38.00
2022-11-29T12:16:38.947Z,40.20
2022-11-29T12:19:11.816Z,40.10
2022-11-29T12:21:43.969Z,42.88
2022-11-29T12:24:10.375Z,39.45
2022-11-29T12:26:59.502Z,37.30
2022-11-29T12:29:28.696Z,37.70
2022-11-29T12:32:21.837Z,38.88
2022-11-29T12:34:56.892Z,40.72
2022-11-29T12:37:37.562Z,46.13
2022-11-29T12:40:03.959Z,42.83
2022-11-29T12:42:49.257Z,39.55
2022-11-29T12:45:20.985Z,38.90
2022-11-29T12:47:53.411Z,36.67
2022-11-29T12:50:22.999Z,36.08
2022-11-29T12:53:08.859Z,35.63
2022-11-29T12:55:43.715Z,36.42
2022-11-29T12:58:14.093Z,39.88
2022-11-29T13:00:56.475Z,38.20
2022-11-29T13:03:27.605Z,35.97
2022-11-29T13:06:00.225Z,36.85
2022-11-29T13:08:29.953Z,36.67
2022-11-29T13:11:04.260Z,35.28
2022-11-29T13:13:44.468Z,34.90
2022-11-29T13:16:31.493Z,33.95
2022-11-29T13:19:03.987Z,39.42
2022-11-29T13:21:49.154Z,39.20
2022-11-29T13:24:39.627Z,37.13
2022-11-29T13:27:14.533Z,42.33
2022-11-29T13:29:40.976Z,40.78
2022-11-29T13:32:14.305Z,40.67
2022-11-29T13:37:19.530Z,39.50
2022-11-29T13:40:14.004Z,42.67
2022-11-29T13:42:58.853Z,41.92
2022-11-29T13:45:28.342Z,42.40
2022-11-29T13:47:56.226Z,46.78
2022-11-29T13:50:36.843Z,43.58
2022-11-29T13:53:04.806Z,47.67
2022-11-29T13:55:31.700Z,46.35
2022-11-29T13:58:16.316Z,50.47
2022-11-29T14:00:46.670Z,51.80
2022-11-29T14:03:28.505Z,51.38
2022-11-29T14:06:01.282Z,52.00
2022-11-29T14:08:55.207Z,54.58
2022-11-29T14:11:24.948Z,54.65
2022-11-29T14:13:53.563Z,56.10
2022-11-29T14:16:42.095Z,54.72
2022-11-29T14:19:08.480Z,54.13
2022-11-29T14:21:53.850Z,51.58
2022-11-29T14:24:32.713Z,46.65
2022-11-29T14:27:19.142Z,47.42
2022-11-29T14:29:49.344Z,46.72
2022-11-29T14:32:33.133Z,46.63
2022-11-29T14:37:34.168Z,46.75
2022-11-29T14:40:03.568Z,46.45
2022-11-29T14:42:31.265Z,43.63
2022-11-29T14:45:00.764Z,43.75
2022-11-29T14:47:38.964Z,45.45
2022-11-29T14:50:10.687Z,41.83
2022-11-29T14:52:40.933Z,41.80
2022-11-29T14:55:25.684Z,42.05
2022-11-29T14:57:53.765Z,43.55
2022-11-29T15:00:20.298Z,43.05
2022-11-29T15:02:52.528Z,44.58
2022-11-29T15:05:20.572Z,44.90
2022-11-29T15:08:01.764Z,43.78
2022-11-29T15:10:31.056Z,43.55
2022-11-29T15:12:59.937Z,45.38
2022-11-29T15:15:58.145Z,47.08
2022-11-29T15:18:41.131Z,46.15
2022-11-29T15:21:07.872Z,49.63
2022-11-29T15:24:00.842Z,51.05
2022-11-29T15:26:27.312Z,52.40
2022-11-29T15:28:53.754Z,49.30
2022-11-29T15:31:29.312Z,51.75
2022-11-29T15:33:55.778Z,56.42
2022-11-29T15:36:28.455Z,52.63
2022-11-29T15:39:09.901Z,54.97
2022-11-29T15:41:41.335Z,54.78
2022-11-29T15:44:19.791Z,56.60
2022-11-29T15:46:46.280Z,59.75
2022-11-29T15:49:22.370Z,58.25
2022-11-29T15:51:54.224Z,57.92
2022-11-29T15:54:26.378Z,59.17
2022-11-29T15:57:29.420Z,61.58
2022-11-29T16:00:00.557Z,54.65
2022-11-29T16:05:37.844Z,58.60
2022-11-29T16:08:07.314Z,61.15
2022-11-29T16:10:53.696Z,60.20
2022-11-29T16:13:34.112Z,63.47
2022-11-29T16:16:10.642Z,70.65
2022-11-29T16:19:07.823Z,63.90
2022-11-29T16:24:55.797Z,66.63
2022-11-29T16:31:17.695Z,64.05
2022-11-29T16:33:45.043Z,65.88
2022-11-29T16:36:36.787Z,70.35
2022-11-29T16:39:15.511Z,68.00
2022-11-29T16:41:44.501Z,67.43
2022-11-29T16:44:50.412Z,68.65
2022-11-29T16:47:19.824Z,65.13
2022-11-29T16:50:07.395Z,65.40
2022-11-29T16:52:39.741Z,66.85
2022-11-29T16:55:14.648Z,66.43
2022-11-29T16:57:59.242Z,67.40
2022-11-29T17:00:33.760Z,64.72
2022-11-29T17:03:04.133Z,60.72
2022-11-29T17:06:06.253Z,62.65
2022-11-29T17:08:33.025Z,59.00
2022-11-29T17:11:02.587Z,59.78
2022-11-29T17:16:38.285Z,57.05
2022-11-29T17:19:04.907Z,58.60
2022-11-29T17:21:31.721Z,57.13
2022-11-29T17:23:58.172Z,56.65
2022-11-29T17:26:24.727Z,56.97
2022-11-29T17:28:51.925Z,59.13
2022-11-29T17:31:22.801Z,58.50
2022-11-29T17:33:52.511Z,56.75
2022-11-29T17:36:20.119Z,57.17
2022-11-29T17:38:46.739Z,55.80
2022-11-29T17:41:15.082Z,56.25
2022-11-29T17:43:41.560Z,57.70
2022-11-29T17:46:12.173Z,54.17
2022-11-29T17:48:39.083Z,53.42
2022-11-29T17:51:17.290Z,51.17
2022-11-29T17:53:52.963Z,49.72
2022-11-29T17:56:21.664Z,49.55
2022-11-29T17:58:52.468Z,50.08
2022-11-29T18:01:22.932Z,48.88
2022-11-29T18:03:56.950Z,50.95
2022-11-29T18:06:24.748Z,55.38
2022-11-29T18:08:55.944Z,64.85
2022-11-29T18:11:30.001Z,67.20
2022-11-29T18:14:01.305Z,58.53
2022-11-29T18:16:31.635Z,60.85
2022-11-29T18:19:02.773Z,51.90
2022-11-29T18:21:32.557Z,48.35
2022-11-29T18:24:04.009Z,50.63
2022-11-29T18:26:31.183Z,47.60
2022-11-29T18:28:58.426Z,49.22
2022-11-29T18:31:28.219Z,46.75
2022-11-29T18:34:07.095Z,45.42
2022-11-29T18:36:37.651Z,45.45
2022-11-29T18:39:05.742Z,45.60
2022-11-29T18:41:38.881Z,43.97
2022-11-29T18:44:10.081Z,45.15
2022-11-29T18:46:41.344Z,47.33
2022-11-29T18:49:22.159Z,50.47
2022-11-29T18:51:49.366Z,64.85
2022-11-29T18:57:03.220Z,45.92
2022-11-29T18:59:52.610Z,48.42
2022-11-29T19:02:21.222Z,47.03
2022-11-29T19:04:50.692Z,54.63
2022-11-29T19:07:34.048Z,55.90
2022-11-29T19:10:01.194Z,57.97
2022-11-29T19:12:28.115Z,57.05
2022-11-29T19:15:30.539Z,58.10
2022-11-29T19:18:35.767Z,54.33
2022-11-29T19:25:23.524Z,57.25
2022-11-29T19:28:26.716Z,64.07
2022-11-29T19:31:27.711Z,59.53
2022-11-29T19:34:04.140Z,67.30
2022-11-29T19:36:44.538Z,64.07
2022-11-29T19:39:17.479Z,68.03
2022-11-29T19:41:45.415Z,67.07
2022-11-29T19:44:17.680Z,67.25
2022-11-29T19:46:46.080Z,67.03
2022-11-29T19:49:47.000Z,66.90
2022-11-29T19:52:13.634Z,65.28
2022-11-29T19:54:43.244Z,70.20
2022-11-29T19:57:12.237Z,63.47
2022-11-29T19:59:41.008Z,65.47
2022-11-29T20:02:13.849Z,66.60
2022-11-29T20:04:40.421Z,66.35
2022-11-29T20:07:06.885Z,62.00
2022-11-29T20:09:33.438Z,63.65
2022-11-29T20:12:02.348Z,64.65
2022-11-29T20:14:28.830Z,58.55
2022-11-29T20:16:57.661Z,60.80
2022-11-29T20:19:24.139Z,58.65
2022-11-29T20:21:51.200Z,58.20
2022-11-29T20:24:24.310Z,54.15
2022-11-29T20:26:51.240Z,54.15
2022-11-29T20:29:19.014Z,54.13
2022-11-29T20:32:03.148Z,53.13
2022-11-29T20:34:36.146Z,50.03
2022-11-29T20:37:11.878Z,53.47
2022-11-29T20:39:48.579Z,48.17
2022-11-29T20:42:18.777Z,48.55
2022-11-29T20:45:14.116Z,50.63
2022-11-29T20:47:47.819Z,48.65
2022-11-29T20:50:43.601Z,49.53
2022-11-29T20:53:31.803Z,48.58
2022-11-29T20:55:58.326Z,48.00
2022-11-29T20:58:31.064Z,47.72
2022-11-29T21:00:57.606Z,46.10
2022-11-29T21:03:27.925Z,45.67
2022-11-29T21:05:55.113Z,45.42
2022-11-29T21:08:29.194Z,44.17
2022-11-29T21:11:00.992Z,43.70
2022-11-29T21:13:29.845Z,43.83
2022-11-29T21:15:58.962Z,42.10
2022-11-29T21:18:30.119Z,43.53
2022-11-29T21:20:56.614Z,42.80
2022-11-29T21:23:27.894Z,43.63
2022-11-29T21:26:04.534Z,44.20
2022-11-29T21:28:34.747Z,44.42
2022-11-29T21:31:01.321Z,46.30
2022-11-29T21:33:28.047Z,44.53
2022-11-29T21:35:55.784Z,45.08
2022-11-29T21:38:23.040Z,47.35
2022-11-29T21:40:54.304Z,47.97
2022-11-29T21:43:22.771Z,45.80
2022-11-29T21:45:51.914Z,45.83
2022-11-29T21:48:35.158Z,48.15
2022-11-29T21:51:02.466Z,48.17
2022-11-29T21:53:29.010Z,47.58
2022-11-29T21:56:01.997Z,47.53
2022-11-29T21:58:29.477Z,48.70
2022-11-29T22:00:55.940Z,48.38
2022-11-29T22:03:22.397Z,50.35
2022-11-29T22:05:48.971Z,45.65
2022-11-29T22:08:18.533Z,47.83
2022-11-29T22:10:45.035Z,49.25
2022-11-29T22:13:13.717Z,47.92
2022-11-29T22:15:40.219Z,48.45
2022-11-29T22:18:06.952Z,48.65
2022-11-29T22:20:33.448Z,48.50
2022-11-29T22:23:00.323Z,50.17
2022-11-29T22:25:26.794Z,50.60
2022-11-29T22:27:53.240Z,51.28
2022-11-29T22:30:19.746Z,53.35
2022-11-29T22:32:46.311Z,52.70
2022-11-29T22:35:13.838Z,50.88
2022-11-29T22:37:40.317Z,51.67
2022-11-29T22:40:07.200Z,50.88
2022-11-29T22:42:33.625Z,54.38
2022-11-29T22:45:02.197Z,53.72
2022-11-29T22:47:31.351Z,51.63
2022-11-29T22:49:59.597Z,51.70
2022-11-29T22:52:26.999Z,50.95
2022-11-29T22:54:53.430Z,49.75
2022-11-29T22:57:19.960Z,50.15
2022-11-29T22:59:51.790Z,49.85
2022-11-29T23:02:18.364Z,50.75
2022-11-29T23:04:45.189Z,51.65
2022-11-29T23:07:11.991Z,52.33
2022-11-29T23:09:38.399Z,53.75
2022-11-29T23:12:04.936Z,51.15
2022-11-29T23:14:31.734Z,53.90
2022-11-29T23:16:58.186Z,55.10
2022-11-29T23:19:24.777Z,56.00
2022-11-29T23:21:51.858Z,54.78
2022-11-29T23:27:21.555Z,57.13
2022-11-29T23:29:47.933Z,51.78
2022-11-29T23:32:14.432Z,56.10
2022-11-29T23:34:40.834Z,54.10
2022-11-29T23:37:07.297Z,58.35
2022-11-29T23:39:33.718Z,62.47
2022-11-29T23:42:00.155Z,64.05
2022-11-29T23:44:26.558Z,65.45
2022-11-29T23:46:53.030Z,63.90
2022-11-29T23:49:19.537Z,62.80
2022-11-29T23:51:45.963Z,63.72
2022-11-29T23:54:12.343Z,59.55
2022-11-29T23:56:38.783Z,62.60
2022-11-29T23:59:05.385Z,66.05
